Time;durP1;ratioP1;P1;durP2;ratioP2;P2;SDS_P1;SDS_P2;PMS_P1;PMS_P2;Temp;Humidity;BMP_temperature;BMP_pressure;BME280_temperature;BME280_humidity;BME280_pressure;Samples;Min_cycle;Max_cycle;Signal;HPM_P1;HPM_P2
2023/04/01 00:00:17;;;;;;;3.90;2.00;;;11.30;95.00;;;;;;5088971;28;20063;-67
2023/04/01 00:02:43;;;;;;;4.28;2.50;;;11.20;94.90;;;;;;5086993;28;20066;-68
2023/04/01 00:05:10;;;;;;;4.80;2.58;;;11.20;94.90;;;;;;5089235;28;20056;-68
2023/04/01 00:07:36;;;;;;;4.95;2.85;;;11.20;95.00;;;;;;5080051;28;20038;-69
2023/04/01 00:10:03;;;;;;;6.88;2.65;;;11.20;95.00;;;;;;5089194;28;20537;-68
2023/04/01 00:12:29;;;;;;;4.32;2.30;;;11.20;95.10;;;;;;5088294;28;20031;-68
2023/04/01 00:14:55;;;;;;;5.90;2.90;;;11.20;95.10;;;;;;5088061;28;20028;-68
2023/04/01 00:17:21;;;;;;;4.82;2.70;;;11.20;95.10;;;;;;5084381;28;20375;-67
2023/04/01 00:19:47;;;;;;;4.28;2.42;;;11.10;95.20;;;;;;5087837;28;20047;-67
2023/04/01 00:22:12;;;;;;;3.97;2.03;;;11.10;95.30;;;;;;5086887;28;20016;-67
2023/04/01 00:24:38;;;;;;;5.65;2.90;;;11.20;95.30;;;;;;5087434;28;20107;-68
2023/04/01 00:27:04;;;;;;;3.30;2.20;;;11.20;95.20;;;;;;5086846;28;20415;-67
2023/04/01 00:29:30;;;;;;;3.63;2.42;;;11.20;95.20;;;;;;5089079;28;20143;-67
2023/04/01 00:31:57;;;;;;;4.43;2.67;;;11.20;95.20;;;;;;5084319;28;20137;-67
2023/04/01 00:34:23;;;;;;;3.75;2.30;;;11.20;95.20;;;;;;5088532;28;20153;-68
2023/04/01 00:36:50;;;;;;;3.28;2.40;;;11.20;95.30;;;;;;5086365;28;20026;-68
2023/04/01 00:39:16;;;;;;;4.13;2.85;;;11.30;95.30;;;;;;5084818;28;20085;-67
2023/04/01 00:41:41;;;;;;;4.45;3.45;;;11.20;95.30;;;;;;5084905;28;20052;-68
2023/04/01 00:44:20;;;;;;;3.80;2.88;;;11.20;95.30;;;;;;5088794;28;20035;-68
2023/04/01 00:46:46;;;;;;;5.32;3.90;;;11.20;95.30;;;;;;5087858;28;20512;-68
2023/04/01 00:49:13;;;;;;;5.60;3.50;;;11.20;95.30;;;;;;5088450;28;20385;-67
2023/04/01 00:51:41;;;;;;;5.60;4.07;;;11.20;95.40;;;;;;5084956;28;20031;-68
2023/04/01 00:54:09;;;;;;;5.10;4.40;;;11.20;95.40;;;;;;5086036;28;20028;-68
2023/04/01 00:56:44;;;;;;;6.40;4.28;;;11.20;95.40;;;;;;5082903;28;20068;-69
2023/04/01 00:59:20;;;;;;;4.72;3.60;;;11.20;95.40;;;;;;5087682;28;20584;-66
2023/04/01 01:01:46;;;;;;;5.53;3.97;;;11.30;95.40;;;;;;5083630;28;20016;-67
2023/04/01 01:04:23;;;;;;;5.40;4.20;;;11.30;95.30;;;;;;5087831;28;20035;-68
2023/04/01 01:07:22;;;;;;;5.85;4.65;;;11.30;95.30;;;;;;5086235;28;20020;-66
2023/04/01 01:10:03;;;;;;;8.95;5.35;;;11.30;95.20;;;;;;5086694;28;20024;-69
2023/04/01 01:12:37;;;;;;;8.95;7.30;;;11.30;95.30;;;;;;5082924;28;20549;-67
2023/04/01 01:15:23;;;;;;;7.80;6.43;;;11.30;95.20;;;;;;5088830;28;20118;-68
2023/04/01 01:18:09;;;;;;;8.65;6.13;;;11.30;95.30;;;;;;5085853;28;20020;-68
2023/04/01 01:20:50;;;;;;;7.78;6.90;;;11.30;95.20;;;;;;5085165;28;20494;-67
2023/04/01 01:23:46;;;;;;;9.60;7.50;;;11.30;95.20;;;;;;5079259;28;20097;-68
2023/04/01 01:26:26;;;;;;;7.97;6.97;;;11.40;95.30;;;;;;5078625;28;20032;-68
2023/04/01 01:29:00;;;;;;;8.63;7.20;;;11.30;95.20;;;;;;5083571;28;20382;-68
2023/04/01 01:31:51;;;;;;;9.45;7.50;;;11.40;95.20;;;;;;5082244;28;20336;-68
2023/04/01 01:34:32;;;;;;;7.85;7.05;;;11.40;95.20;;;;;;5091908;28;20573;-68
2023/04/01 01:37:03;;;;;;;9.02;6.88;;;11.40;95.20;;;;;;5093422;28;20036;-68
2023/04/01 01:39:34;;;;;;;8.82;5.97;;;11.40;95.20;;;;;;5086895;28;20036;-68
2023/04/01 01:42:05;;;;;;;8.17;6.27;;;11.40;95.20;;;;;;5092359;28;20035;-67
2023/04/01 01:44:33;;;;;;;9.97;6.43;;;11.40;95.10;;;;;;5097877;28;20026;-68
2023/04/01 01:47:00;;;;;;;10.70;8.23;;;11.40;95.20;;;;;;5092486;28;20303;-68
2023/04/01 01:49:27;;;;;;;9.25;7.20;;;11.40;95.10;;;;;;5082845;28;20016;-68
2023/04/01 01:51:53;;;;;;;8.60;6.97;;;11.40;95.20;;;;;;5080188;28;20431;-68
2023/04/01 01:54:19;;;;;;;10.50;6.80;;;11.40;95.10;;;;;;5069018;28;20067;-68
2023/04/01 01:56:48;;;;;;;8.63;6.20;;;11.40;95.10;;;;;;5070977;28;20031;-68
2023/04/01 01:59:15;;;;;;;8.45;5.85;;;11.40;95.10;;;;;;5073095;28;20626;-68
2023/04/01 02:01:45;;;;;;;7.63;5.25;;;11.40;95.10;;;;;;5071893;28;20414;-69
2023/04/01 02:04:14;;;;;;;7.53;5.13;;;11.40;95.10;;;;;;5085622;28;20099;-68
2023/04/01 02:06:44;;;;;;;11.25;6.88;;;11.40;95.10;;;;;;5089601;28;20026;-68
2023/04/01 02:09:11;;;;;;;12.98;7.32;;;11.40;95.10;;;;;;5088067;28;20028;-68
2023/04/01 02:11:48;;;;;;;12.23;6.50;;;11.40;95.10;;;;;;5085057;28;20064;-68
2023/04/01 02:14:18;;;;;;;10.75;6.78;;;11.30;95.10;;;;;;5082767;28;20056;-69
2023/04/01 02:17:06;;;;;;;10.77;6.03;;;11.30;95.10;;;;;;5069930;28;20028;-69
2023/04/01 02:19:37;;;;;;;13.00;7.00;;;11.30;95.00;;;;;;5069613;28;20028;-69
2023/04/01 02:22:11;;;;;;;12.23;6.38;;;11.30;95.00;;;;;;5071359;28;20032;-68
2023/04/01 02:24:40;;;;;;;13.75;6.45;;;11.30;95.00;;;;;;5086126;28;20390;-67
2023/04/01 02:27:06;;;;;;;13.07;6.72;;;11.30;95.00;;;;;;5083170;28;20474;-67
2023/04/01 02:29:32;;;;;;;12.88;6.20;;;11.40;94.90;;;;;;5070186;28;20086;-67
2023/04/01 02:31:58;;;;;;;10.65;5.78;;;11.30;94.90;;;;;;5083856;28;20025;-66
2023/04/01 02:34:25;;;;;;;8.27;4.63;;;11.30;94.80;;;;;;5069504;28;20491;-68
2023/04/01 02:36:51;;;;;;;14.45;5.57;;;11.30;94.80;;;;;;5069387;28;20025;-67
2023/04/01 02:39:17;;;;;;;8.52;4.38;;;11.30;94.80;;;;;;5069331;28;20078;-67
2023/04/01 02:41:45;;;;;;;8.75;4.65;;;11.30;94.90;;;;;;5069087;28;20025;-67
2023/04/01 02:44:12;;;;;;;8.35;4.45;;;11.20;94.90;;;;;;5070766;28;20060;-68
2023/04/01 02:46:38;;;;;;;8.50;4.57;;;11.20;94.90;;;;;;5072710;28;20049;-66
2023/04/01 02:49:04;;;;;;;9.52;4.80;;;11.20;94.90;;;;;;5072709;28;20033;-67
2023/04/01 02:51:30;;;;;;;7.55;3.83;;;11.20;94.90;;;;;;5073116;28;20024;-67
2023/04/01 02:53:56;;;;;;;8.88;4.07;;;11.20;94.90;;;;;;5071694;28;20487;-67
2023/04/01 02:56:21;;;;;;;6.82;3.90;;;11.20;94.90;;;;;;5083382;28;20039;-66
2023/04/01 02:58:48;;;;;;;6.95;3.47;;;11.20;94.90;;;;;;5085890;28;20024;-67
2023/04/01 03:01:13;;;;;;;7.35;3.72;;;11.20;95.00;;;;;;5084850;28;20058;-68
2023/04/01 03:03:39;;;;;;;7.63;4.53;;;11.20;94.90;;;;;;5088265;28;20024;-68
2023/04/01 03:06:06;;;;;;;4.85;3.40;;;11.20;94.90;;;;;;5087267;28;20027;-66
2023/04/01 03:08:31;;;;;;;7.88;4.10;;;11.20;94.90;;;;;;5085043;28;20016;-68
2023/04/01 03:10:57;;;;;;;5.30;3.20;;;11.10;94.90;;;;;;5085791;28;20027;-67
2023/04/01 03:13:22;;;;;;;5.30;3.35;;;11.10;95.00;;;;;;5082945;28;20107;-67
2023/04/01 03:15:48;;;;;;;4.50;3.40;;;11.10;95.00;;;;;;5085113;28;20031;-67
2023/04/01 03:18:14;;;;;;;4.60;3.40;;;11.10;94.90;;;;;;5087580;28;20028;-68
2023/04/01 03:20:39;;;;;;;4.07;3.25;;;11.10;94.90;;;;;;5084803;28;20024;-67
2023/04/01 03:23:05;;;;;;;4.43;3.50;;;11.20;95.00;;;;;;5082692;28;20028;-67
2023/04/01 03:25:30;;;;;;;5.57;4.40;;;11.20;94.90;;;;;;5084918;28;20020;-68
2023/04/01 03:27:59;;;;;;;5.65;3.90;;;11.20;94.90;;;;;;5091700;28;20027;-67
2023/04/01 03:30:24;;;;;;;4.95;4.20;;;11.20;94.80;;;;;;5075492;28;20497;-68
2023/04/01 03:32:50;;;;;;;4.30;3.75;;;11.20;94.80;;;;;;5073144;28;20031;-67
2023/04/01 03:35:16;;;;;;;5.30;4.30;;;11.20;94.90;;;;;;5090809;28;20544;-67
2023/04/01 03:37:41;;;;;;;5.10;3.90;;;11.20;94.90;;;;;;5073316;28;20055;-65
2023/04/01 03:40:07;;;;;;;5.30;4.20;;;11.20;94.80;;;;;;5073948;28;20036;-66
2023/04/01 03:42:33;;;;;;;4.60;4.00;;;11.10;94.80;;;;;;5071124;28;20028;-67
2023/04/01 03:44:59;;;;;;;4.18;3.63;;;11.10;94.80;;;;;;5079226;28;20090;-68
2023/04/01 03:47:24;;;;;;;4.75;3.95;;;11.10;94.80;;;;;;5077329;28;20100;-67
2023/04/01 03:49:50;;;;;;;5.28;3.83;;;11.20;94.80;;;;;;5080878;28;20028;-67
2023/04/01 03:52:16;;;;;;;5.82;4.53;;;11.10;94.80;;;;;;5071534;28;20152;-67
2023/04/01 03:54:41;;;;;;;6.15;4.57;;;11.20;94.80;;;;;;5079535;28;20070;-67
2023/04/01 03:57:07;;;;;;;4.90;4.00;;;11.20;94.80;;;;;;5081882;28;20111;-67
2023/04/01 03:59:32;;;;;;;6.40;4.70;;;11.20;94.80;;;;;;5081407;28;20103;-66
2023/04/01 04:01:58;;;;;;;7.28;4.90;;;11.20;94.70;;;;;;5088322;28;20040;-65
2023/04/01 04:04:24;;;;;;;8.57;6.85;;;11.10;94.70;;;;;;5087326;28;20541;-68
2023/04/01 04:06:50;;;;;;;6.28;5.32;;;11.10;94.70;;;;;;5078465;28;20028;-66
2023/04/01 04:09:16;;;;;;;6.30;5.40;;;11.00;94.70;;;;;;5082060;28;20021;-67
2023/04/01 04:11:41;;;;;;;5.35;4.30;;;11.00;94.80;;;;;;5091158;28;20023;-67
2023/04/01 04:14:07;;;;;;;5.60;5.00;;;11.00;94.80;;;;;;5083182;28;20047;-67
2023/04/01 04:16:36;;;;;;;4.78;4.00;;;11.10;94.80;;;;;;5071131;28;20025;-67
2023/04/01 04:19:02;;;;;;;4.68;4.00;;;11.10;94.80;;;;;;5075743;28;20035;-66
2023/04/01 04:21:28;;;;;;;5.40;4.13;;;11.00;94.70;;;;;;5072813;28;20445;-66
2023/04/01 04:23:53;;;;;;;4.97;4.05;;;11.00;94.80;;;;;;5082732;28;20048;-67
2023/04/01 04:26:19;;;;;;;5.88;4.93;;;11.00;94.80;;;;;;5074256;28;20020;-67
2023/04/01 04:28:44;;;;;;;4.93;3.85;;;11.00;94.80;;;;;;5071201;28;20020;-67
2023/04/01 04:31:10;;;;;;;4.53;4.00;;;11.00;94.80;;;;;;5085434;28;20036;-67
2023/04/01 04:33:36;;;;;;;6.28;4.32;;;11.00;94.80;;;;;;5089892;28;20020;-67
2023/04/01 04:36:02;;;;;;;5.75;4.70;;;11.00;95.10;;;;;;5077196;28;20048;-66
2023/04/01 04:38:28;;;;;;;5.28;4.05;;;11.00;94.90;;;;;;5068747;28;20131;-66
2023/04/01 04:40:54;;;;;;;4.65;4.07;;;11.00;94.80;;;;;;5078893;28;20113;-66
2023/04/01 04:43:20;;;;;;;4.32;3.67;;;11.00;94.80;;;;;;5069464;28;20083;-66
2023/04/01 04:45:46;;;;;;;5.38;3.88;;;11.00;94.80;;;;;;5080116;28;20347;-67
2023/04/01 04:48:18;;;;;;;4.35;3.95;;;11.10;94.80;;;;;;5091168;28;20055;-66
2023/04/01 04:50:48;;;;;;;4.38;3.95;;;11.10;94.70;;;;;;5082527;28;20023;-67
2023/04/01 04:53:15;;;;;;;4.80;3.90;;;11.10;94.70;;;;;;5089221;28;20056;-66
2023/04/01 04:55:49;;;;;;;4.32;3.92;;;11.10;94.70;;;;;;5077564;28;20021;-66
2023/04/01 04:58:15;;;;;;;4.93;3.83;;;11.10;94.70;;;;;;5070875;28;20031;-66
2023/04/01 05:00:41;;;;;;;3.38;3.08;;;11.10;94.70;;;;;;5072186;28;20021;-66
2023/04/01 05:03:07;;;;;;;4.18;3.78;;;11.10;94.70;;;;;;5088391;28;20062;-66
2023/04/01 05:05:33;;;;;;;3.10;2.80;;;11.10;94.70;;;;;;5081787;28;20033;-66
2023/04/01 05:07:59;;;;;;;3.40;3.10;;;11.10;94.70;;;;;;5086752;28;20131;-66
2023/04/01 05:10:24;;;;;;;3.70;3.40;;;11.20;94.70;;;;;;5086851;28;20104;-66
2023/04/01 05:12:50;;;;;;;3.40;3.10;;;11.20;94.70;;;;;;5086981;28;20020;-66
2023/04/01 05:15:16;;;;;;;3.75;3.40;;;11.20;94.60;;;;;;5087523;28;20123;-67
2023/04/01 05:17:41;;;;;;;2.92;2.55;;;11.20;94.60;;;;;;5088827;28;20032;-67
2023/04/01 05:20:07;;;;;;;3.85;3.45;;;11.20;94.60;;;;;;5089668;28;20099;-67
2023/04/01 05:22:33;;;;;;;3.20;2.90;;;11.20;94.50;;;;;;5089607;28;20063;-68
2023/04/01 05:24:58;;;;;;;3.58;3.10;;;11.20;94.50;;;;;;5083659;28;20016;-67
2023/04/01 05:27:24;;;;;;;3.13;2.83;;;11.30;94.50;;;;;;5087758;28;20440;-67
2023/04/01 05:29:49;;;;;;;2.90;2.70;;;11.30;94.40;;;;;;5089110;28;20032;-67
2023/04/01 05:32:15;;;;;;;3.88;3.47;;;11.30;94.40;;;;;;5082098;28;20024;-67
2023/04/01 05:34:41;;;;;;;2.83;2.58;;;11.30;94.40;;;;;;5087493;28;20020;-67
2023/04/01 05:37:07;;;;;;;2.65;2.45;;;11.30;94.30;;;;;;5078369;28;20040;-67
2023/04/01 05:39:39;;;;;;;2.90;2.60;;;11.40;94.30;;;;;;5089102;28;20020;-67
2023/04/01 05:42:08;;;;;;;;;;;11.40;94.30;;;;;;5081459;28;20032;-67
2023/04/01 05:44:34;;;;;;;3.60;3.13;;;11.40;94.10;;;;;;5087819;28;19933;-67
2023/04/01 05:46:59;;;;;;;3.83;3.40;;;11.30;94.20;;;;;;5086747;28;20064;-67
2023/04/01 05:49:25;;;;;;;3.72;3.33;;;11.30;94.20;;;;;;5089692;28;20099;-67
2023/04/01 05:51:51;;;;;;;3.60;3.22;;;11.30;94.20;;;;;;5083849;28;20036;-67
2023/04/01 05:54:17;;;;;;;5.13;4.22;;;11.30;94.20;;;;;;5089134;28;20028;-68
2023/04/01 05:56:42;;;;;;;4.65;3.85;;;11.30;94.20;;;;;;5083577;28;20063;-67
2023/04/01 05:59:10;;;;;;;4.53;3.80;;;11.30;94.20;;;;;;5080893;28;20051;-68
2023/04/01 06:01:36;;;;;;;6.63;4.78;;;11.40;94.20;;;;;;5077051;28;20037;-68
2023/04/01 06:04:01;;;;;;;6.93;5.10;;;11.40;94.10;;;;;;5085073;28;20378;-70
2023/04/01 06:06:29;;;;;;;6.80;5.30;;;11.30;94.10;;;;;;5083305;28;20059;-68
2023/04/01 06:08:58;;;;;;;6.65;5.22;;;11.30;94.10;;;;;;5087749;28;20119;-68
2023/04/01 06:12:01;;;;;;;8.35;5.85;;;11.30;94.10;;;;;;5084170;28;20031;-67
2023/04/01 06:15:04;;;;;;;8.35;5.75;;;11.30;94.10;;;;;;5083460;28;20045;-66
2023/04/01 06:18:09;;;;;;;8.63;5.60;;;11.30;94.10;;;;;;5084125;28;20024;-66
2023/04/01 06:20:50;;;;;;;9.85;6.30;;;11.40;94.10;;;;;;5083134;28;20082;-69
2023/04/01 06:23:31;;;;;;;11.57;8.10;;;11.30;94.00;;;;;;5089687;28;20158;-67
2023/04/01 06:26:02;;;;;;;14.18;8.15;;;11.30;94.10;;;;;;5083248;28;20371;-68
2023/04/01 06:28:27;;;;;;;11.38;7.13;;;11.30;94.10;;;;;;5088042;28;20036;-67
2023/04/01 06:31:21;;;;;;;14.68;7.97;;;11.20;94.10;;;;;;5083476;28;20052;-68
2023/04/01 06:33:49;;;;;;;13.73;7.80;;;11.20;94.20;;;;;;5078248;28;20034;-67
2023/04/01 06:36:22;;;;;;;12.77;7.90;;;11.20;94.20;;;;;;5087223;28;20054;-68
2023/04/01 06:38:50;;;;;;;11.55;6.97;;;11.20;94.20;;;;;;5088651;28;20020;-69
2023/04/01 06:41:21;;;;;;;12.68;7.78;;;11.30;94.20;;;;;;5089973;28;20024;-68
2023/04/01 06:44:25;;;;;;;14.40;8.43;;;11.30;94.30;;;;;;5090161;28;20024;-67
2023/04/01 06:47:29;;;;;;;14.18;7.93;;;11.30;94.30;;;;;;5088756;28;20028;-67
2023/04/01 06:50:24;;;;;;;12.52;6.93;;;11.40;94.20;;;;;;5088120;28;20020;-68
2023/04/01 06:53:25;;;;;;;12.38;7.00;;;11.40;94.20;;;;;;5088927;28;20048;-67
2023/04/01 06:55:57;;;;;;;10.80;6.18;;;11.50;94.10;;;;;;5089079;28;20024;-68
2023/04/01 06:58:41;;;;;;;10.90;6.28;;;11.50;94.10;;;;;;5089625;28;20024;-68
2023/04/01 07:01:13;;;;;;;8.00;4.93;;;11.50;94.00;;;;;;5088784;28;20067;-67
2023/04/01 07:03:41;;;;;;;7.50;4.85;;;11.60;94.10;;;;;;5086750;28;20494;-68
2023/04/01 07:06:15;;;;;;;7.93;5.18;;;11.60;94.00;;;;;;5084634;28;20032;-68
2023/04/01 07:08:43;;;;;;;8.95;5.22;;;11.70;94.00;;;;;;5084838;28;20016;-67
2023/04/01 07:11:16;;;;;;;6.65;4.57;;;11.70;93.90;;;;;;5090808;28;20023;-67
2023/04/01 07:14:19;;;;;;;8.27;4.70;;;11.70;93.90;;;;;;5090376;28;20081;-67
2023/04/01 07:16:56;;;;;;;6.07;4.18;;;11.70;93.90;;;;;;5084708;28;20032;-67
2023/04/01 07:19:34;;;;;;;6.57;3.90;;;11.70;93.90;;;;;;5088733;28;20412;-67
2023/04/01 07:22:30;;;;;;;6.68;3.75;;;11.70;93.90;;;;;;5094589;28;20049;-68
2023/04/01 07:24:57;;;;;;;4.45;3.25;;;11.80;93.90;;;;;;5100485;28;20016;-68
2023/04/01 07:27:23;;;;;;;4.50;3.03;;;11.90;93.90;;;;;;5089345;28;20031;-67
2023/04/01 07:29:49;;;;;;;4.00;3.00;;;11.90;93.70;;;;;;5089581;28;20031;-67
2023/04/01 07:32:20;;;;;;;3.60;2.58;;;11.90;93.70;;;;;;5089754;28;20059;-68
2023/04/01 07:34:52;;;;;;;3.67;2.60;;;11.90;93.70;;;;;;5082269;28;20090;-68
2023/04/01 07:37:35;;;;;;;3.05;2.25;;;12.00;93.70;;;;;;5077692;28;20277;-69
2023/04/01 07:40:18;;;;;;;2.72;2.08;;;12.00;93.80;;;;;;5081547;28;20088;-68
2023/04/01 07:42:44;;;;;;;2.63;2.10;;;12.10;93.80;;;;;;5087930;28;20036;-68
2023/04/01 07:45:38;;;;;;;3.47;2.50;;;12.10;93.70;;;;;;5088685;28;20532;-68
2023/04/01 07:48:12;;;;;;;2.65;2.20;;;12.10;93.70;;;;;;5075988;28;20035;-68
2023/04/01 07:50:56;;;;;;;2.85;2.20;;;12.10;93.70;;;;;;5084821;28;21018;-69
2023/04/01 07:53:43;;;;;;;2.50;2.10;;;12.20;93.70;;;;;;5085636;28;20470;-68
2023/04/01 07:56:15;;;;;;;2.55;2.17;;;12.30;93.70;;;;;;5085745;28;20040;-69
2023/04/01 07:58:46;;;;;;;3.78;2.33;;;12.30;93.60;;;;;;5086476;28;20062;-69
2023/04/01 08:01:34;;;;;;;2.72;2.00;;;12.30;93.50;;;;;;5090287;28;20020;-68
2023/04/01 08:04:32;;;;;;;4.28;2.55;;;12.30;93.50;;;;;;5087034;28;20032;-68
2023/04/01 08:06:58;;;;;;;2.35;2.03;;;12.40;93.50;;;;;;5088845;28;20394;-68
2023/04/01 08:09:55;;;;;;;3.80;2.50;;;12.30;93.50;;;;;;5081398;28;20024;-66
2023/04/01 08:12:46;;;;;;;3.53;2.78;;;12.40;93.60;;;;;;5090346;28;20036;-67
2023/04/01 08:15:36;;;;;;;2.88;2.47;;;12.40;93.50;;;;;;5086650;28;20429;-67
2023/04/01 08:18:05;;;;;;;3.13;2.55;;;12.40;93.60;;;;;;5086686;28;20036;-67
2023/04/01 08:21:03;;;;;;;2.70;2.13;;;12.50;93.60;;;;;;5080572;28;20062;-67
2023/04/01 08:23:48;;;;;;;3.10;2.35;;;12.50;93.50;;;;;;5086508;28;20655;-67
2023/04/01 08:26:39;;;;;;;2.70;2.30;;;12.50;93.50;;;;;;5087052;28;20042;-67
2023/04/01 08:29:21;;;;;;;5.17;4.67;;;12.40;93.50;;;;;;5071232;28;20025;-67
2023/04/01 08:32:06;;;;;;;4.70;3.67;;;12.50;93.70;;;;;;5073996;28;20021;-67
2023/04/01 08:34:41;;;;;;;3.05;2.60;;;12.50;93.70;;;;;;5076994;28;20028;-67
2023/04/01 08:37:19;;;;;;;3.60;2.78;;;12.50;93.60;;;;;;5073867;28;20119;-66
2023/04/01 08:39:55;;;;;;;3.65;3.25;;;12.50;93.60;;;;;;5077500;28;20046;-68
2023/04/01 08:42:47;;;;;;;3.47;2.50;;;12.50;93.70;;;;;;5075245;28;20041;-67
2023/04/01 08:45:22;;;;;;;3.00;2.70;;;12.50;93.60;;;;;;5080327;28;20016;-66
2023/04/01 08:48:11;;;;;;;2.88;2.58;;;12.50;93.80;;;;;;5080652;28;20093;-66
2023/04/01 08:51:03;;;;;;;2.55;2.35;;;12.50;93.80;;;;;;5086009;28;20020;-67
2023/04/01 08:53:43;;;;;;;2.22;2.03;;;12.50;93.80;;;;;;5085111;28;20046;-66
2023/04/01 08:56:22;;;;;;;1.20;1.10;;;12.60;93.80;;;;;;5086296;28;20027;-66
2023/04/01 08:59:08;;;;;;;2.20;2.00;;;12.60;93.80;;;;;;5081987;28;20024;-67
2023/04/01 09:02:24;;;;;;;1.58;1.48;;;12.60;93.70;;;;;;5080924;28;20432;-67
2023/04/01 09:04:58;;;;;;;1.30;1.20;;;12.60;93.80;;;;;;5082371;28;20067;-68
2023/04/01 09:07:48;;;;;;;1.10;1.00;;;12.70;93.80;;;;;;5084653;28;20216;-68
2023/04/01 09:10:37;;;;;;;1.15;1.00;;;12.60;93.70;;;;;;5085712;28;20120;-68
2023/04/01 09:13:24;;;;;;;0.95;0.95;;;12.70;93.70;;;;;;5092897;28;20031;-68
2023/04/01 09:16:13;;;;;;;1.08;0.98;;;12.70;93.70;;;;;;5091601;28;20031;-67
2023/04/01 09:19:03;;;;;;;2.47;1.40;;;12.70;93.80;;;;;;5091025;28;20393;-68
2023/04/01 09:21:51;;;;;;;1.15;1.05;;;12.70;93.80;;;;;;5085460;28;20486;-68
2023/04/01 09:24:54;;;;;;;1.20;1.10;;;12.70;93.80;;;;;;5077827;28;20054;-68
2023/04/01 09:27:28;;;;;;;1.10;1.10;;;12.70;93.80;;;;;;5078029;28;20032;-68
2023/04/01 09:30:39;;;;;;;1.75;1.50;;;12.70;93.80;;;;;;5087271;28;20405;-68
2023/04/01 09:33:42;;;;;;;1.40;1.30;;;12.80;93.90;;;;;;5068956;28;20036;-68
2023/04/01 09:36:31;;;;;;;2.60;2.40;;;12.80;93.70;;;;;;5075125;28;20441;-68
2023/04/01 09:39:19;;;;;;;2.67;1.85;;;12.80;93.80;;;;;;5075831;28;20156;-68
2023/04/01 09:41:50;;;;;;;2.20;1.77;;;12.80;93.80;;;;;;5080687;28;20040;-68
2023/04/01 09:44:36;;;;;;;3.03;2.80;;;12.80;93.70;;;;;;5089675;28;20119;-68
2023/04/01 09:47:24;;;;;;;3.25;2.00;;;12.80;93.70;;;;;;5079950;28;20578;-68
2023/04/01 09:50:20;;;;;;;2.55;1.45;;;12.80;93.80;;;;;;5072286;28;20024;-68
2023/04/01 09:53:04;;;;;;;1.58;1.48;;;12.70;93.80;;;;;;5088055;28;20615;-67
2023/04/01 09:55:50;;;;;;;1.75;1.63;;;12.60;93.90;;;;;;5088068;28;20024;-67
2023/04/01 09:58:37;;;;;;;2.45;1.90;;;12.60;93.90;;;;;;5087864;28;20626;-68
2023/04/01 10:01:31;;;;;;;2.45;1.70;;;12.50;93.90;;;;;;5093986;28;20052;-67
2023/04/01 10:04:54;;;;;;;2.10;1.67;;;12.50;94.00;;;;;;5103896;28;20059;-68
2023/04/01 10:07:20;;;;;;;1.90;1.67;;;12.50;94.10;;;;;;5101568;28;21228;-67
2023/04/01 10:10:16;;;;;;;2.35;1.75;;;12.50;94.00;;;;;;5094622;28;20027;-67
2023/04/01 10:13:01;;;;;;;2.55;2.25;;;12.50;94.10;;;;;;5099546;28;20027;-68
2023/04/01 10:15:55;;;;;;;2.90;2.22;;;12.50;94.10;;;;;;5101095;28;20023;-68
2023/04/01 10:18:45;;;;;;;2.80;2.28;;;12.50;94.10;;;;;;5094325;28;20506;-67
2023/04/01 10:21:40;;;;;;;2.72;2.40;;;12.50;94.00;;;;;;5092085;28;20016;-68
2023/04/01 10:24:33;;;;;;;4.55;2.60;;;12.50;94.10;;;;;;5090189;28;20497;-68
2023/04/01 10:27:10;;;;;;;3.83;3.00;;;12.60;94.10;;;;;;5091775;28;20428;-67
2023/04/01 10:29:46;;;;;;;3.50;2.70;;;12.60;93.90;;;;;;5090592;28;20467;-68
2023/04/01 10:32:30;;;;;;;4.82;3.00;;;12.60;94.00;;;;;;5091583;28;20382;-68
2023/04/01 10:35:10;;;;;;;3.38;2.90;;;12.60;93.90;;;;;;5090325;28;20471;-65
2023/04/01 10:37:51;;;;;;;3.58;2.90;;;12.70;93.90;;;;;;5085937;28;20693;-68
2023/04/01 10:40:28;;;;;;;3.65;3.00;;;12.80;93.80;;;;;;5086387;28;20028;-67
2023/04/01 10:43:45;;;;;;;3.30;2.90;;;12.90;93.80;;;;;;5089132;28;20024;-67
2023/04/01 10:46:21;;;;;;;3.85;2.85;;;13.10;93.80;;;;;;5081519;28;20036;-67
2023/04/01 10:49:14;;;;;;;3.90;2.80;;;13.20;93.60;;;;;;5085016;28;20089;-67
2023/04/01 10:52:00;;;;;;;7.85;5.15;;;13.20;93.50;;;;;;5087770;28;20024;-67
2023/04/01 10:55:04;;;;;;;17.40;11.35;;;13.20;93.40;;;;;;5090123;28;20028;-67
2023/04/01 10:57:56;;;;;;;11.02;7.82;;;13.30;93.40;;;;;;5085546;28;20032;-67
2023/04/01 11:00:27;;;;;;;;;;;13.30;93.30;;;;;;5086337;28;20028;-66
2023/04/01 11:03:35;;;;;;;6.20;4.78;;;13.30;93.20;;;;;;5086082;28;19919;-67
2023/04/01 11:06:32;;;;;;;5.18;4.30;;;13.30;93.40;;;;;;5089105;28;20028;-67
2023/04/01 11:09:03;;;;;;;4.45;3.70;;;13.30;93.40;;;;;;5080451;28;20074;-66
2023/04/01 11:12:04;;;;;;;6.32;5.28;;;13.30;93.50;;;;;;5087074;28;20490;-66
2023/04/01 11:14:49;;;;;;;6.37;5.67;;;13.40;93.40;;;;;;5084125;28;20482;-66
2023/04/01 11:17:46;;;;;;;5.07;4.38;;;13.40;93.30;;;;;;5083433;28;20040;-67
2023/04/01 11:20:31;;;;;;;5.28;3.38;;;13.40;93.20;;;;;;5087723;28;20107;-67
2023/04/01 11:23:03;;;;;;;3.60;2.83;;;13.30;93.00;;;;;;5080345;28;20082;-66
2023/04/01 11:25:58;;;;;;;2.22;1.98;;;13.20;93.00;;;;;;5089083;28;20403;-66
2023/04/01 11:29:02;;;;;;;1.75;1.63;;;13.10;93.10;;;;;;5087476;28;20024;-66
2023/04/01 11:31:49;;;;;;;1.33;1.20;;;12.90;93.10;;;;;;5083586;28;20115;-66
2023/04/01 11:34:48;;;;;;;2.13;1.17;;;12.90;93.20;;;;;;5083581;28;20402;-66
2023/04/01 11:37:35;;;;;;;0.98;0.90;;;12.80;93.20;;;;;;5087012;28;20131;-66
2023/04/01 11:40:31;;;;;;;1.20;1.10;;;12.80;93.30;;;;;;5078312;28;20021;-67
2023/04/01 11:43:34;;;;;;;0.90;0.90;;;12.70;93.20;;;;;;5086188;28;20102;-67
2023/04/01 11:46:21;;;;;;;1.38;1.20;;;12.70;93.40;;;;;;5086052;28;20472;-67
2023/04/01 11:48:58;;;;;;;1.50;1.40;;;12.60;93.40;;;;;;5087911;28;20024;-67
2023/04/01 11:51:29;;;;;;;1.50;1.40;;;12.60;93.60;;;;;;5088730;28;20055;-67
2023/04/01 11:54:10;;;;;;;1.40;1.30;;;12.60;93.70;;;;;;5088965;28;20049;-66
2023/04/01 11:56:48;;;;;;;1.50;1.33;;;12.60;93.70;;;;;;5085980;28;20020;-67
2023/04/01 11:59:59;;;;;;;1.80;1.40;;;12.60;93.70;;;;;;5086146;28;20382;-67
2023/04/01 12:03:02;;;;;;;1.85;1.63;;;12.60;93.80;;;;;;5080925;28;20040;-66
2023/04/01 12:05:39;;;;;;;2.53;1.63;;;12.50;93.80;;;;;;5086053;28;20062;-66
2023/04/01 12:08:16;;;;;;;5.75;1.90;;;12.40;93.90;;;;;;5087561;28;20047;-66
2023/04/01 12:11:05;;;;;;;3.88;1.60;;;12.50;94.00;;;;;;5086558;28;20107;-67
2023/04/01 12:13:45;;;;;;;2.00;1.50;;;12.40;94.10;;;;;;5086819;28;20044;-66
2023/04/01 12:16:49;;;;;;;1.88;1.42;;;12.40;94.20;;;;;;5086399;28;20114;-66
2023/04/01 12:19:24;;;;;;;1.70;1.52;;;12.40;94.30;;;;;;5076504;28;20564;-66
2023/04/01 12:21:56;;;;;;;6.15;2.90;;;12.30;94.30;;;;;;5084807;28;20059;-66
2023/04/01 12:24:47;;;;;;;3.38;2.00;;;12.30;94.40;;;;;;5087366;28;20065;-66
2023/04/01 12:27:25;;;;;;;2.45;1.67;;;12.40;94.40;;;;;;5088388;28;20078;-66
2023/04/01 12:30:12;;;;;;;3.65;2.08;;;12.40;94.40;;;;;;5080069;28;20036;-66
2023/04/01 12:32:42;;;;;;;2.97;2.40;;;12.50;94.40;;;;;;5085177;28;20032;-66
2023/04/01 12:35:26;;;;;;;3.13;2.10;;;12.50;94.30;;;;;;5085068;28;20035;-66
2023/04/01 12:38:16;;;;;;;2.22;1.92;;;12.50;94.30;;;;;;5086255;28;20062;-67
2023/04/01 12:41:10;;;;;;;5.70;4.32;;;12.60;94.30;;;;;;5082030;28;20436;-67
2023/04/01 12:44:06;;;;;;;16.85;11.43;;;12.60;94.30;;;;;;5085950;28;20024;-67
2023/04/01 12:47:19;;;;;;;13.75;9.57;;;12.70;94.20;;;;;;5087647;28;20107;-66
2023/04/01 12:50:08;;;;;;;6.45;5.07;;;12.70;94.20;;;;;;5083787;28;20041;-67
2023/04/01 12:53:02;;;;;;;6.72;5.30;;;12.70;94.20;;;;;;5082574;28;20028;-66
2023/04/01 12:55:42;;;;;;;4.03;3.03;;;12.70;94.20;;;;;;5084210;28;20028;-66
2023/04/01 12:58:18;;;;;;;3.15;2.00;;;12.70;94.20;;;;;;5086771;28;20557;-67
2023/04/01 13:01:20;;;;;;;2.45;1.70;;;12.70;94.20;;;;;;5084066;28;20096;-67
2023/04/01 13:03:49;;;;;;;;;;;12.70;94.30;;;;;;5086982;28;20035;-67
2023/04/01 13:06:20;;;;;;;3.85;3.00;;;12.80;94.20;;;;;;5086985;28;19908;-68
2023/04/01 13:09:07;;;;;;;3.90;3.50;;;12.80;94.20;;;;;;5079590;28;20124;-67
2023/04/01 13:11:53;;;;;;;2.30;2.05;;;12.90;94.20;;;;;;5080371;28;20706;-67
2023/04/01 13:14:25;;;;;;;3.63;2.85;;;12.90;94.20;;;;;;5081168;28;20037;-66
2023/04/01 13:17:33;;;;;;;4.68;3.55;;;12.90;94.30;;;;;;5077701;28;20032;-67
2023/04/01 13:20:36;;;;;;;2.58;2.20;;;12.90;94.30;;;;;;5076738;28;20047;-67
2023/04/01 13:23:43;;;;;;;2.35;2.15;;;13.00;94.30;;;;;;5083111;28;20039;-66
2023/04/01 13:26:36;;;;;;;2.20;2.00;;;13.10;94.20;;;;;;5075023;28;20043;-67
2023/04/01 13:29:16;;;;;;;3.13;1.80;;;13.10;94.20;;;;;;5064472;28;20107;-66
2023/04/01 13:31:58;;;;;;;13.77;2.08;;;13.20;94.20;;;;;;5079962;28;20784;-67
2023/04/01 13:34:29;;;;;;;;;;;13.20;94.20;;;;;;5079176;28;20048;-67
2023/04/01 13:37:18;;;;;;;1.42;1.33;;;13.30;94.10;;;;;;5081120;28;20015;-67